sensor_id;sensor_type;location;lat;lon;timestamp;pressure;altitude;pressure_sealevel;temperature;humidity
21781;BME280;52576;53.614;9.894;2022-08-19T00:00:31;100812.69;;;19.46;90.32
21781;BME280;52576;53.614;9.894;2022-08-19T00:01:36;100808.38;;;19.45;90.26
21781;BME280;52576;53.614;9.894;2022-08-19T00:02:40;100814.63;;;19.45;90.21
21781;BME280;52576;53.614;9.894;2022-08-19T00:03:51;100804.03;;;19.44;90.37
21781;BME280;52576;53.614;9.894;2022-08-19T00:04:54;100802.13;;;19.44;90.30
21781;BME280;52576;53.614;9.894;2022-08-19T00:05:57;100807.53;;;19.44;90.26
21781;BME280;52576;53.614;9.894;2022-08-19T00:07:01;100800.50;;;19.43;90.45
21781;BME280;52576;53.614;9.894;2022-08-19T00:08:05;100798.59;;;19.44;90.27
21781;BME280;52576;53.614;9.894;2022-08-19T00:09:09;100797.78;;;19.43;90.49
21781;BME280;52576;53.614;9.894;2022-08-19T00:10:15;100798.88;;;19.42;90.57
21781;BME280;52576;53.614;9.894;2022-08-19T00:11:17;100790.97;;;19.41;90.75
21781;BME280;52576;53.614;9.894;2022-08-19T00:12:27;100790.97;;;19.41;90.75
21781;BME280;52576;53.614;9.894;2022-08-19T00:13:29;100787.72;;;19.39;90.82
21781;BME280;52576;53.614;9.894;2022-08-19T00:14:32;100798.31;;;19.40;91.02
21781;BME280;52576;53.614;9.894;2022-08-19T00:15:36;100789.34;;;19.40;91.01
21781;BME280;52576;53.614;9.894;2022-08-19T00:16:40;100776.00;;;19.33;90.98
21781;BME280;52576;53.614;9.894;2022-08-19T00:17:44;100788.50;;;19.39;90.90
21781;BME280;52576;53.614;9.894;2022-08-19T00:18:47;100792.31;;;19.38;91.02
21781;BME280;52576;53.614;9.894;2022-08-19T00:19:50;100786.06;;;19.38;91.09
21781;BME280;52576;53.614;9.894;2022-08-19T00:20:54;100779.53;;;19.34;90.94
21781;BME280;52576;53.614;9.894;2022-08-19T00:21:56;100790.44;;;19.39;91.23
21781;BME280;52576;53.614;9.894;2022-08-19T00:22:59;100795.03;;;19.38;91.15
21781;BME280;52576;53.614;9.894;2022-08-19T00:24:02;100792.06;;;19.40;91.25
21781;BME280;52576;53.614;9.894;2022-08-19T00:25:06;100796.38;;;19.41;91.23
21781;BME280;52576;53.614;9.894;2022-08-19T00:26:10;100798.03;;;19.42;91.19
21781;BME280;52576;53.614;9.894;2022-08-19T00:27:14;100800.75;;;19.42;91.29
21781;BME280;52576;53.614;9.894;2022-08-19T00:28:27;100798.03;;;19.42;91.23
21781;BME280;52576;53.614;9.894;2022-08-19T00:29:31;100806.75;;;19.44;91.03
21781;BME280;52576;53.614;9.894;2022-08-19T00:30:33;100806.75;;;19.44;91.19
21781;BME280;52576;53.614;9.894;2022-08-19T00:31:38;100796.38;;;19.41;91.12
21781;BME280;52576;53.614;9.894;2022-08-19T00:32:40;100793.69;;;19.41;90.95
21781;BME280;52576;53.614;9.894;2022-08-19T00:33:43;100791.53;;;19.43;90.94
21781;BME280;52576;53.614;9.894;2022-08-19T00:34:46;100799.66;;;19.43;90.78
21781;BME280;52576;53.614;9.894;2022-08-19T00:35:49;100790.97;;;19.41;91.08
21781;BME280;52576;53.614;9.894;2022-08-19T00:36:57;100787.47;;;19.40;91.14
21781;BME280;52576;53.614;9.894;2022-08-19T00:38:01;100787.72;;;19.39;90.93
21781;BME280;52576;53.614;9.894;2022-08-19T00:39:03;100781.72;;;19.37;91.12
21781;BME280;52576;53.614;9.894;2022-08-19T00:40:07;100777.91;;;19.33;91.04
21781;BME280;52576;53.614;9.894;2022-08-19T00:41:12;100788.22;;;19.36;91.14
21781;BME280;52576;53.614;9.894;2022-08-19T00:42:16;100786.59;;;19.35;91.20
21781;BME280;52576;53.614;9.894;2022-08-19T00:43:21;100790.41;;;19.34;91.24
21781;BME280;52576;53.614;9.894;2022-08-19T00:44:27;100793.09;;;19.34;91.33
21781;BME280;52576;53.614;9.894;2022-08-19T00:45:29;100790.41;;;19.34;91.25
21781;BME280;52576;53.614;9.894;2022-08-19T00:46:40;100791.47;;;19.33;91.26
21781;BME280;52576;53.614;9.894;2022-08-19T00:47:44;100792.03;;;19.35;91.37
21781;BME280;52576;53.614;9.894;2022-08-19T00:48:47;100793.09;;;19.34;91.23
21781;BME280;52576;53.614;9.894;2022-08-19T00:49:51;100771.59;;;19.27;91.39
21781;BME280;52576;53.614;9.894;2022-08-19T00:50:55;100791.19;;;19.34;91.25
21781;BME280;52576;53.614;9.894;2022-08-19T00:52:03;100782.25;;;19.34;91.27
21781;BME280;52576;53.614;9.894;2022-08-19T00:53:07;100779.53;;;19.34;91.07
21781;BME280;52576;53.614;9.894;2022-08-19T00:54:12;100785.78;;;19.34;91.25
21781;BME280;52576;53.614;9.894;2022-08-19T00:55:19;100778.72;;;19.33;91.34
21781;BME280;52576;53.614;9.894;2022-08-19T00:56:22;100766.75;;;19.29;90.99
21781;BME280;52576;53.614;9.894;2022-08-19T00:57:28;100767.56;;;19.30;91.38
21781;BME280;52576;53.614;9.894;2022-08-19T00:58:34;100769.75;;;19.33;91.31
21781;BME280;52576;53.614;9.894;2022-08-19T00:59:38;100772.47;;;19.33;91.45
21781;BME280;52576;53.614;9.894;2022-08-19T01:01:03;100782.53;;;19.32;91.47
21781;BME280;52576;53.614;9.894;2022-08-19T01:02:08;100772.47;;;19.33;91.44
21781;BME280;52576;53.614;9.894;2022-08-19T01:03:15;100768.63;;;19.29;91.30
21781;BME280;52576;53.614;9.894;2022-08-19T01:04:20;100777.09;;;19.32;91.46
21781;BME280;52576;53.614;9.894;2022-08-19T01:05:24;100771.91;;;19.31;91.50
21781;BME280;52576;53.614;9.894;2022-08-19T01:06:31;100773.22;;;19.28;91.43
21781;BME280;52576;53.614;9.894;2022-08-19T01:07:34;100772.19;;;19.29;91.69
21781;BME280;52576;53.614;9.894;2022-08-19T01:08:39;100773.00;;;19.30;91.51
21781;BME280;52576;53.614;9.894;2022-08-19T01:09:41;100775.13;;;19.28;91.73
21781;BME280;52576;53.614;9.894;2022-08-19T01:10:47;100776.22;;;19.27;91.74
21781;BME280;52576;53.614;9.894;2022-08-19T01:11:50;100774.81;;;19.24;91.69
21781;BME280;52576;53.614;9.894;2022-08-19T01:12:55;100780.25;;;19.24;91.72
21781;BME280;52576;53.614;9.894;2022-08-19T01:13:58;100775.09;;;19.23;91.74
21781;BME280;52576;53.614;9.894;2022-08-19T01:15:03;100768.03;;;19.22;92.04
21781;BME280;52576;53.614;9.894;2022-08-19T01:16:07;100775.09;;;19.23;92.03
21781;BME280;52576;53.614;9.894;2022-08-19T01:17:13;100765.03;;;19.18;92.14
21781;BME280;52576;53.614;9.894;2022-08-19T01:18:17;100760.91;;;19.16;92.14
21781;BME280;52576;53.614;9.894;2022-08-19T01:19:27;100770.19;;;19.20;92.05
21781;BME280;52576;53.614;9.894;2022-08-19T01:20:29;100750.00;;;19.06;92.42
21781;BME280;52576;53.614;9.894;2022-08-19T01:21:42;100772.34;;;19.18;92.38
21781;BME280;52576;53.614;9.894;2022-08-19T01:22:49;100766.91;;;19.18;92.45
21781;BME280;52576;53.614;9.894;2022-08-19T01:23:53;100762.31;;;19.18;92.46
21781;BME280;52576;53.614;9.894;2022-08-19T01:24:56;100760.44;;;19.19;92.58
21781;BME280;52576;53.614;9.894;2022-08-19T01:26:00;100762.31;;;19.18;92.45
21781;BME280;52576;53.614;9.894;2022-08-19T01:27:04;100763.13;;;19.19;92.74
21781;BME280;52576;53.614;9.894;2022-08-19T01:28:16;100756.06;;;19.18;92.72
21781;BME280;52576;53.614;9.894;2022-08-19T01:29:38;100757.72;;;19.19;92.75
21781;BME280;52576;53.614;9.894;2022-08-19T01:30:42;100760.44;;;19.19;92.62
21781;BME280;52576;53.614;9.894;2022-08-19T01:31:51;100767.75;;;19.18;92.58
21781;BME280;52576;53.614;9.894;2022-08-19T01:32:55;100770.19;;;19.20;92.83
21781;BME280;52576;53.614;9.894;2022-08-19T01:33:58;100765.84;;;19.19;92.90
21781;BME280;52576;53.614;9.894;2022-08-19T01:35:03;100765.03;;;19.18;92.77
21781;BME280;52576;53.614;9.894;2022-08-19T01:36:08;100763.41;;;19.17;92.81
21781;BME280;52576;53.614;9.894;2022-08-19T01:37:13;100765.59;;;19.20;93.09
21781;BME280;52576;53.614;9.894;2022-08-19T01:38:27;100760.44;;;19.19;93.06
21781;BME280;52576;53.614;9.894;2022-08-19T01:39:33;100765.03;;;19.18;92.97
21781;BME280;52576;53.614;9.894;2022-08-19T01:40:37;100758.78;;;19.18;93.10
21781;BME280;52576;53.614;9.894;2022-08-19T01:41:42;100746.78;;;19.09;93.16
21781;BME280;52576;53.614;9.894;2022-08-19T01:42:44;100765.56;;;19.15;93.29
21781;BME280;52576;53.614;9.894;2022-08-19T01:43:47;100753.06;;;19.14;93.32
21781;BME280;52576;53.614;9.894;2022-08-19T01:45:11;100745.41;;;19.06;93.45
21781;BME280;52576;53.614;9.894;2022-08-19T01:46:14;100753.31;;;19.13;93.62
21781;BME280;52576;53.614;9.894;2022-08-19T01:47:16;100761.44;;;19.13;93.68
21781;BME280;52576;53.614;9.894;2022-08-19T01:48:20;100759.81;;;19.12;93.69
21781;BME280;52576;53.614;9.894;2022-08-19T01:49:23;100756.84;;;19.13;93.96
21781;BME280;52576;53.614;9.894;2022-08-19T01:50:29;100758.75;;;19.13;93.79
21781;BME280;52576;53.614;9.894;2022-08-19T01:51:31;100760.66;;;19.12;93.90
21781;BME280;52576;53.614;9.894;2022-08-19T01:52:42;100760.66;;;19.12;93.87
21781;BME280;52576;53.614;9.894;2022-08-19T01:53:48;100756.28;;;19.11;93.95
21781;BME280;52576;53.614;9.894;2022-08-19T01:54:51;100756.56;;;19.10;94.31
21781;BME280;52576;53.614;9.894;2022-08-19T01:55:53;100748.69;;;19.08;94.04
21781;BME280;52576;53.614;9.894;2022-08-19T01:57:01;100750.81;;;19.06;94.08
21781;BME280;52576;53.614;9.894;2022-08-19T01:58:06;100741.34;;;19.04;94.00
21781;BME280;52576;53.614;9.894;2022-08-19T01:59:13;100746.22;;;19.07;94.32
21781;BME280;52576;53.614;9.894;2022-08-19T02:00:19;100742.69;;;19.06;94.44
21781;BME280;52576;53.614;9.894;2022-08-19T02:01:22;100739.97;;;19.06;94.48
21781;BME280;52576;53.614;9.894;2022-08-19T02:02:32;100742.97;;;19.05;94.40
21781;BME280;52576;53.614;9.894;2022-08-19T02:03:34;100741.34;;;19.04;94.46
21781;BME280;52576;53.614;9.894;2022-08-19T02:04:38;100745.09;;;19.03;94.47
21781;BME280;52576;53.614;9.894;2022-08-19T02:05:41;100731.50;;;18.98;94.80
21781;BME280;52576;53.614;9.894;2022-08-19T02:06:44;100736.41;;;19.01;94.75
21781;BME280;52576;53.614;9.894;2022-08-19T02:07:47;100733.16;;;18.99;94.73
21781;BME280;52576;53.614;9.894;2022-08-19T02:08:52;100738.59;;;18.99;94.98
21781;BME280;52576;53.614;9.894;2022-08-19T02:09:58;100738.59;;;18.99;94.96
21781;BME280;52576;53.614;9.894;2022-08-19T02:11:04;100738.56;;;18.94;95.51
21781;BME280;52576;53.614;9.894;2022-08-19T02:12:07;100739.09;;;18.96;95.13
21781;BME280;52576;53.614;9.894;2022-08-19T02:13:11;100749.13;;;18.95;95.23
21781;BME280;52576;53.614;9.894;2022-08-19T02:14:13;100742.88;;;18.95;95.43
21781;BME280;52576;53.614;9.894;2022-08-19T02:15:17;100748.31;;;18.95;95.53
21781;BME280;52576;53.614;9.894;2022-08-19T02:16:21;100739.03;;;18.91;95.66
21781;BME280;52576;53.614;9.894;2022-08-19T02:17:25;100735.84;;;18.94;95.78
21781;BME280;52576;53.614;9.894;2022-08-19T02:18:27;100746.69;;;18.94;95.88
21781;BME280;52576;53.614;9.894;2022-08-19T02:19:30;100738.56;;;18.94;96.04
21781;BME280;52576;53.614;9.894;2022-08-19T02:20:34;100741.00;;;18.95;95.88
21781;BME280;52576;53.614;9.894;2022-08-19T02:21:38;100730.94;;;18.96;96.15
21781;BME280;52576;53.614;9.894;2022-08-19T02:22:41;100733.66;;;18.96;95.95
21781;BME280;52576;53.614;9.894;2022-08-19T02:23:45;100726.63;;;18.95;96.03
21781;BME280;52576;53.614;9.894;2022-08-19T02:24:48;100726.34;;;18.96;96.13
21781;BME280;52576;53.614;9.894;2022-08-19T02:25:52;100722.81;;;18.96;96.14
21781;BME280;52576;53.614;9.894;2022-08-19T02:26:54;100722.03;;;18.95;96.15
21781;BME280;52576;53.614;9.894;2022-08-19T02:27:57;100722.81;;;18.96;96.22
21781;BME280;52576;53.614;9.894;2022-08-19T02:28:59;100725.53;;;18.96;96.11
21781;BME280;52576;53.614;9.894;2022-08-19T02:30:04;100721.19;;;18.95;96.31
21781;BME280;52576;53.614;9.894;2022-08-19T02:31:09;100717.66;;;18.94;96.09
21781;BME280;52576;53.614;9.894;2022-08-19T02:32:13;100713.31;;;18.93;96.07
21781;BME280;52576;53.614;9.894;2022-08-19T02:33:16;100712.50;;;18.93;96.08
21781;BME280;52576;53.614;9.894;2022-08-19T02:34:19;100717.94;;;18.93;96.25
21781;BME280;52576;53.614;9.894;2022-08-19T02:35:21;100716.31;;;18.92;96.20
21781;BME280;52576;53.614;9.894;2022-08-19T02:36:25;100716.31;;;18.92;96.29
21781;BME280;52576;53.614;9.894;2022-08-19T02:37:27;100708.44;;;18.90;96.25
21781;BME280;52576;53.614;9.894;2022-08-19T02:38:48;100707.59;;;18.90;96.25
21781;BME280;52576;53.614;9.894;2022-08-19T02:39:57;100705.41;;;18.87;96.35
21781;BME280;52576;53.614;9.894;2022-08-19T02:41:01;100697.84;;;18.89;96.39
21781;BME280;52576;53.614;9.894;2022-08-19T02:42:05;100707.03;;;18.88;96.45
21781;BME280;52576;53.614;9.894;2022-08-19T02:43:08;100702.72;;;18.87;96.77
21781;BME280;52576;53.614;9.894;2022-08-19T02:44:11;100710.84;;;18.87;96.72
21781;BME280;52576;53.614;9.894;2022-08-19T02:45:32;100712.44;;;18.83;96.73
21781;BME280;52576;53.614;9.894;2022-08-19T02:46:35;100714.88;;;18.84;96.57
21781;BME280;52576;53.614;9.894;2022-08-19T02:47:38;100719.50;;;18.84;96.59
21781;BME280;52576;53.614;9.894;2022-08-19T02:48:40;100717.06;;;18.82;96.65
21781;BME280;52576;53.614;9.894;2022-08-19T02:49:43;100727.06;;;18.82;96.86
21781;BME280;52576;53.614;9.894;2022-08-19T02:50:46;100725.41;;;18.81;96.98
21781;BME280;52576;53.614;9.894;2022-08-19T02:51:54;100725.41;;;18.81;97.01
21781;BME280;52576;53.614;9.894;2022-08-19T02:52:56;100725.41;;;18.81;97.02
21781;BME280;52576;53.614;9.894;2022-08-19T02:53:59;100719.72;;;18.77;97.15
21781;BME280;52576;53.614;9.894;2022-08-19T02:55:04;100723.78;;;18.80;97.00
21781;BME280;52576;53.614;9.894;2022-08-19T02:56:08;100722.16;;;18.79;97.20
21781;BME280;52576;53.614;9.894;2022-08-19T02:57:10;100725.13;;;18.77;97.10
21781;BME280;52576;53.614;9.894;2022-08-19T02:58:14;100715.34;;;18.76;97.00
21781;BME280;52576;53.614;9.894;2022-08-19T02:59:16;100718.59;;;18.73;97.14
21781;BME280;52576;53.614;9.894;2022-08-19T03:00:24;100717.19;;;18.70;97.27
21781;BME280;52576;53.614;9.894;2022-08-19T03:01:29;100721.56;;;18.71;97.27
21781;BME280;52576;53.614;9.894;2022-08-19T03:02:33;100723.72;;;18.69;97.44
21781;BME280;52576;53.614;9.894;2022-08-19T03:03:35;100728.28;;;18.69;97.50
21781;BME280;52576;53.614;9.894;2022-08-19T03:04:39;100730.22;;;18.68;97.59
21781;BME280;52576;53.614;9.894;2022-08-19T03:05:42;100729.66;;;18.66;97.60
21781;BME280;52576;53.614;9.894;2022-08-19T03:06:57;100734.22;;;18.66;97.57
21781;BME280;52576;53.614;9.894;2022-08-19T03:08:12;100735.59;;;18.63;98.03
21781;BME280;52576;53.614;9.894;2022-08-19T03:09:16;100731.78;;;18.64;97.71
21781;BME280;52576;53.614;9.894;2022-08-19T03:10:20;100731.78;;;18.64;98.04
21781;BME280;52576;53.614;9.894;2022-08-19T03:11:26;100732.63;;;18.65;97.88
21781;BME280;52576;53.614;9.894;2022-08-19T03:12:31;100728.81;;;18.66;97.95
21781;BME280;52576;53.614;9.894;2022-08-19T03:13:33;100738.03;;;18.65;97.88
21781;BME280;52576;53.614;9.894;2022-08-19T03:14:37;100735.31;;;18.65;97.94
21781;BME280;52576;53.614;9.894;2022-08-19T03:15:41;100743.44;;;18.65;97.65
21781;BME280;52576;53.614;9.894;2022-08-19T03:16:46;100745.59;;;18.63;98.03
21781;BME280;52576;53.614;9.894;2022-08-19T03:17:49;100733.94;;;18.62;97.76
21781;BME280;52576;53.614;9.894;2022-08-19T03:18:53;100741.50;;;18.60;97.96
21781;BME280;52576;53.614;9.894;2022-08-19T03:19:56;100728.19;;;18.59;97.88
21781;BME280;52576;53.614;9.894;2022-08-19T03:20:59;100734.72;;;18.58;97.97
21781;BME280;52576;53.614;9.894;2022-08-19T03:22:02;100726.84;;;18.56;98.01
21781;BME280;52576;53.614;9.894;2022-08-19T03:23:05;100738.72;;;18.55;98.06
21781;BME280;52576;53.614;9.894;2022-08-19T03:24:08;100733.31;;;18.55;97.99
21781;BME280;52576;53.614;9.894;2022-08-19T03:25:11;100721.94;;;18.53;98.31
21781;BME280;52576;53.614;9.894;2022-08-19T03:26:15;100730.88;;;18.54;98.31
21781;BME280;52576;53.614;9.894;2022-08-19T03:27:19;100731.69;;;18.54;98.19
21781;BME280;52576;53.614;9.894;2022-08-19T03:28:21;100735.50;;;18.53;98.18
21781;BME280;52576;53.614;9.894;2022-08-19T03:29:25;100730.06;;;18.53;98.50
21781;BME280;52576;53.614;9.894;2022-08-19T03:30:31;100731.13;;;18.52;98.42
21781;BME280;52576;53.614;9.894;2022-08-19T03:31:34;100728.41;;;18.52;98.57
21781;BME280;52576;53.614;9.894;2022-08-19T03:32:53;100726.78;;;18.51;98.49
21781;BME280;52576;53.614;9.894;2022-08-19T03:33:58;100732.22;;;18.51;98.65
21781;BME280;52576;53.614;9.894;2022-08-19T03:35:00;100730.56;;;18.50;98.53
21781;BME280;52576;53.614;9.894;2022-08-19T03:36:07;100733.53;;;18.49;98.61
21781;BME280;52576;53.614;9.894;2022-08-19T03:37:11;100743.31;;;18.50;98.63
21781;BME280;52576;53.614;9.894;2022-08-19T03:38:14;100744.09;;;18.50;98.88
21781;BME280;52576;53.614;9.894;2022-08-19T03:39:17;100743.56;;;18.48;98.89
21781;BME280;52576;53.614;9.894;2022-08-19T03:40:19;100743.56;;;18.48;99.06
21781;BME280;52576;53.614;9.894;2022-08-19T03:41:26;100738.16;;;18.48;98.89
21781;BME280;52576;53.614;9.894;2022-08-19T03:42:46;100747.31;;;18.47;99.13
21781;BME280;52576;53.614;9.894;2022-08-19T03:43:52;100735.41;;;18.43;98.96
21781;BME280;52576;53.614;9.894;2022-08-19T03:44:54;100746.22;;;18.43;99.20
21781;BME280;52576;53.614;9.894;2022-08-19T03:46:03;100745.91;;;18.40;99.12
21781;BME280;52576;53.614;9.894;2022-08-19T03:47:05;100753.53;;;18.43;99.12
21781;BME280;52576;53.614;9.894;2022-08-19T03:48:09;100755.41;;;18.42;99.47
21781;BME280;52576;53.614;9.894;2022-08-19T03:49:11;100756.22;;;18.43;99.65
21781;BME280;52576;53.614;9.894;2022-08-19T03:50:15;100753.53;;;18.43;99.68
21781;BME280;52576;53.614;9.894;2022-08-19T03:51:19;100753.78;;;18.41;99.80
21781;BME280;52576;53.614;9.894;2022-08-19T03:52:31;100751.91;;;18.42;99.84
21781;BME280;52576;53.614;9.894;2022-08-19T03:53:35;100755.41;;;18.42;99.94
21781;BME280;52576;53.614;9.894;2022-08-19T03:54:38;100745.66;;;18.41;99.67
21781;BME280;52576;53.614;9.894;2022-08-19T03:55:41;100748.38;;;18.41;99.98
21781;BME280;52576;53.614;9.894;2022-08-19T03:56:46;100750.00;;;18.42;99.79
21781;BME280;52576;53.614;9.894;2022-08-19T03:57:50;100752.69;;;18.42;100.00
21781;BME280;52576;53.614;9.894;2022-08-19T03:58:56;100752.13;;;18.40;100.00
21781;BME280;52576;53.614;9.894;2022-08-19T04:00:00;100742.94;;;18.41;100.00
21781;BME280;52576;53.614;9.894;2022-08-19T04:01:17;100750.25;;;18.41;100.00
21781;BME280;52576;53.614;9.894;2022-08-19T04:02:20;100749.41;;;18.40;100.00
21781;BME280;52576;53.614;9.894;2022-08-19T04:03:24;100752.94;;;18.41;100.00
21781;BME280;52576;53.614;9.894;2022-08-19T04:04:26;100753.22;;;18.39;100.00
21781;BME280;52576;53.614;9.894;2022-08-19T04:05:32;100762.97;;;18.40;100.00
21781;BME280;52576;53.614;9.894;2022-08-19T04:06:36;100758.63;;;18.39;100.00
21781;BME280;52576;53.614;9.894;2022-08-19T04:07:40;100763.78;;;18.41;100.00
21781;BME280;52576;53.614;9.894;2022-08-19T04:08:44;100760.25;;;18.40;100.00
21781;BME280;52576;53.614;9.894;2022-08-19T04:09:48;100752.94;;;18.41;100.00
21781;BME280;52576;53.614;9.894;2022-08-19T04:10:53;100756.50;;;18.41;100.00
21781;BME280;52576;53.614;9.894;2022-08-19T04:11:57;100752.03;;;18.35;100.00
21781;BME280;52576;53.614;9.894;2022-08-19T04:13:01;100753.22;;;18.39;100.00
21781;BME280;52576;53.614;9.894;2022-08-19T04:14:03;100755.91;;;18.39;100.00
21781;BME280;52576;53.614;9.894;2022-08-19T04:15:07;100756.97;;;18.38;100.00
21781;BME280;52576;53.614;9.894;2022-08-19T04:16:10;100753.44;;;18.38;100.00
21781;BME280;52576;53.614;9.894;2022-08-19T04:17:13;100754.28;;;18.38;100.00
21781;BME280;52576;53.614;9.894;2022-08-19T04:18:16;100747.41;;;18.31;100.00
21781;BME280;52576;53.614;9.894;2022-08-19T04:19:19;100762.38;;;18.38;100.00
21781;BME280;52576;53.614;9.894;2022-08-19T04:20:22;100764.28;;;18.38;100.00
21781;BME280;52576;53.614;9.894;2022-08-19T04:21:26;100766.97;;;18.38;100.00
21781;BME280;52576;53.614;9.894;2022-08-19T04:22:29;100773.47;;;18.37;100.00
21781;BME280;52576;53.614;9.894;2022-08-19T04:23:32;100780.78;;;18.36;100.00
21781;BME280;52576;53.614;9.894;2022-08-19T04:24:35;100779.94;;;18.36;100.00
21781;BME280;52576;53.614;9.894;2022-08-19T04:25:39;100781.84;;;18.35;100.00
21781;BME280;52576;53.614;9.894;2022-08-19T04:26:43;100780.22;;;18.34;100.00
21781;BME280;52576;53.614;9.894;2022-08-19T04:27:46;100781.28;;;18.33;100.00
21781;BME280;52576;53.614;9.894;2022-08-19T04:28:50;100785.63;;;18.34;100.00
21781;BME280;52576;53.614;9.894;2022-08-19T04:29:53;100784.00;;;18.33;100.00
21781;BME280;52576;53.614;9.894;2022-08-19T04:30:56;100775.06;;;18.33;100.00
21781;BME280;52576;53.614;9.894;2022-08-19T04:31:59;100772.59;;;18.31;100.00
21781;BME280;52576;53.614;9.894;2022-08-19T04:33:10;100784.00;;;18.33;100.00
21781;BME280;52576;53.614;9.894;2022-08-19T04:34:15;100771.47;;;18.27;100.00
21781;BME280;52576;53.614;9.894;2022-08-19T04:35:19;100791.56;;;18.31;100.00
21781;BME280;52576;53.614;9.894;2022-08-19T04:36:27;100783.44;;;18.31;100.00
21781;BME280;52576;53.614;9.894;2022-08-19T04:37:30;100782.59;;;18.31;100.00
21781;BME280;52576;53.614;9.894;2022-08-19T04:38:36;100780.41;;;18.28;100.00
21781;BME280;52576;53.614;9.894;2022-08-19T04:39:40;100793.69;;;18.29;100.00
21781;BME280;52576;53.614;9.894;2022-08-19T04:41:03;100793.13;;;18.27;100.00
21781;BME280;52576;53.614;9.894;2022-08-19T04:42:24;100790.94;;;18.24;100.00
21781;BME280;52576;53.614;9.894;2022-08-19T04:43:45;100793.38;;;18.26;100.00
21781;BME280;52576;53.614;9.894;2022-08-19T04:44:50;100792.31;;;18.27;100.00
21781;BME280;52576;53.614;9.894;2022-08-19T04:45:52;100791.25;;;18.28;100.00
21781;BME280;52576;53.614;9.894;2022-08-19T04:47:02;100790.41;;;18.27;100.00
21781;BME280;52576;53.614;9.894;2022-08-19T04:48:12;100804.53;;;18.29;100.00
21781;BME280;52576;53.614;9.894;2022-08-19T04:49:28;100803.44;;;18.30;100.00
21781;BME280;52576;53.614;9.894;2022-08-19T04:50:31;100791.25;;;18.28;100.00
21781;BME280;52576;53.614;9.894;2022-08-19T04:51:39;100796.97;;;18.31;100.00
21781;BME280;52576;53.614;9.894;2022-08-19T04:52:42;100797.78;;;18.32;100.00
21781;BME280;52576;53.614;9.894;2022-08-19T04:53:45;100795.88;;;18.32;100.00
21781;BME280;52576;53.614;9.894;2022-08-19T04:54:48;100800.25;;;18.33;100.00
21781;BME280;52576;53.614;9.894;2022-08-19T04:55:50;100797.53;;;18.33;100.00
21781;BME280;52576;53.614;9.894;2022-08-19T04:56:54;100794.00;;;18.33;100.00
21781;BME280;52576;53.614;9.894;2022-08-19T04:57:56;100805.66;;;18.33;100.00
21781;BME280;52576;53.614;9.894;2022-08-19T04:59:02;100800.50;;;18.32;100.00
21781;BME280;52576;53.614;9.894;2022-08-19T05:00:06;100807.81;;;18.31;100.00
21781;BME280;52576;53.614;9.894;2022-08-19T05:01:12;100790.41;;;18.27;100.00
21781;BME280;52576;53.614;9.894;2022-08-19T05:02:15;100806.16;;;18.30;100.00
21781;BME280;52576;53.614;9.894;2022-08-19T05:03:18;100800.72;;;18.30;100.00
21781;BME280;52576;53.614;9.894;2022-08-19T05:04:21;100794.50;;;18.30;100.00
21781;BME280;52576;53.614;9.894;2022-08-19T05:05:24;100803.44;;;18.30;100.00
21781;BME280;52576;53.614;9.894;2022-08-19T05:06:27;100796.41;;;18.29;100.00
21781;BME280;52576;53.614;9.894;2022-08-19T05:07:36;100800.97;;;18.29;100.00
21781;BME280;52576;53.614;9.894;2022-08-19T05:08:39;100797.47;;;18.28;100.00
21781;BME280;52576;53.614;9.894;2022-08-19T05:09:44;100807.22;;;18.29;100.00
21781;BME280;52576;53.614;9.894;2022-08-19T05:10:59;100800.97;;;18.29;100.00
21781;BME280;52576;53.614;9.894;2022-08-19T05:12:02;100802.91;;;18.28;100.00
21781;BME280;52576;53.614;9.894;2022-08-19T05:13:05;100805.59;;;18.28;100.00
21781;BME280;52576;53.614;9.894;2022-08-19T05:14:10;100806.66;;;18.27;100.00
21781;BME280;52576;53.614;9.894;2022-08-19T05:15:14;100801.50;;;18.26;100.00
21781;BME280;52576;53.614;9.894;2022-08-19T05:16:18;100814.47;;;18.24;100.00
21781;BME280;52576;53.614;9.894;2022-08-19T05:17:22;100811.75;;;18.24;100.00
21781;BME280;52576;53.614;9.894;2022-08-19T05:18:29;100806.53;;;18.17;100.00
21781;BME280;52576;53.614;9.894;2022-08-19T05:19:50;100810.13;;;18.23;100.00
21781;BME280;52576;53.614;9.894;2022-08-19T05:21:12;100812.00;;;18.22;100.00
21781;BME280;52576;53.614;9.894;2022-08-19T05:22:33;100813.94;;;18.22;100.00
21781;BME280;52576;53.614;9.894;2022-08-19T05:23:37;100808.72;;;18.20;100.00
21781;BME280;52576;53.614;9.894;2022-08-19T05:24:39;100806.28;;;18.19;100.00
21781;BME280;52576;53.614;9.894;2022-08-19T05:26:03;100810.38;;;18.21;100.00
21781;BME280;52576;53.614;9.894;2022-08-19T05:27:06;100814.16;;;18.20;100.00
21781;BME280;52576;53.614;9.894;2022-08-19T05:28:08;100817.94;;;18.19;100.00
21781;BME280;52576;53.614;9.894;2022-08-19T05:29:14;100814.97;;;18.21;100.00
21781;BME280;52576;53.614;9.894;2022-08-19T05:30:17;100816.84;;;18.20;100.00
21781;BME280;52576;53.614;9.894;2022-08-19T05:31:41;100815.22;;;18.19;100.00
21781;BME280;52576;53.614;9.894;2022-08-19T05:32:44;100815.22;;;18.19;100.00
21781;BME280;52576;53.614;9.894;2022-08-19T05:33:48;100815.47;;;18.18;100.00
21781;BME280;52576;53.614;9.894;2022-08-19T05:34:50;100821.16;;;18.16;100.00
21781;BME280;52576;53.614;9.894;2022-08-19T05:35:53;100818.69;;;18.15;100.00
21781;BME280;52576;53.614;9.894;2022-08-19T05:36:57;100814.59;;;18.12;100.00
21781;BME280;52576;53.614;9.894;2022-08-19T05:38:01;100816.50;;;18.12;100.00
21781;BME280;52576;53.614;9.894;2022-08-19T05:39:03;100819.44;;;18.10;100.00
21781;BME280;52576;53.614;9.894;2022-08-19T05:40:08;100822.97;;;18.11;100.00